Time;durP1;ratioP1;P1;durP2;ratioP2;P2;SDS_P1;SDS_P2;PMS_P1;PMS_P2;Temp;Humidity;BMP_temperature;BMP_pressure;BME280_temperature;BME280_humidity;BME280_pressure;Samples;Min_cycle;Max_cycle;Signal;HPM_P1;HPM_P2
2023/03/06 00:00:50;;;;;;;1.77;1.23;;;31.50;99.90;;;;;;5053449;28;20198;-78
2023/03/06 00:03:22;;;;;;;2.17;1.10;;;31.60;99.90;;;;;;5049999;28;20562;-78
2023/03/06 00:05:55;;;;;;;3.53;1.70;;;31.70;99.90;;;;;;5051648;28;20217;-77
2023/03/06 00:08:28;;;;;;;3.13;1.40;;;31.90;99.90;;;;;;5050707;28;20233;-79
2023/03/06 00:10:59;;;;;;;3.95;1.42;;;32.00;99.90;;;;;;5045691;28;20233;-80
2023/03/06 00:13:30;;;;;;;1.70;1.13;;;32.00;99.90;;;;;;5047286;28;20236;-80
2023/03/06 00:16:05;;;;;;;1.80;1.30;;;32.20;99.90;;;;;;5047635;28;20231;-77
2023/03/06 00:18:36;;;;;;;1.50;1.30;;;32.20;99.90;;;;;;5051603;28;20207;-80
2023/03/06 00:21:10;;;;;;;2.20;1.10;;;32.30;99.90;;;;;;5051979;28;20190;-80
2023/03/06 00:23:41;;;;;;;3.88;1.27;;;32.40;99.90;;;;;;5051652;28;20197;-79
2023/03/06 00:26:13;;;;;;;2.35;1.10;;;32.50;99.90;;;;;;5051445;28;20244;-82
2023/03/06 00:28:44;;;;;;;7.95;2.45;;;32.50;99.90;;;;;;5053121;28;20190;-79
2023/03/06 00:31:17;;;;;;;4.45;1.65;;;32.60;99.90;;;;;;5052510;28;20201;-78
2023/03/06 00:33:48;;;;;;;3.22;1.10;;;32.70;99.90;;;;;;5052422;28;20557;-83
2023/03/06 00:36:19;;;;;;;3.20;1.20;;;32.70;99.90;;;;;;5051324;28;20672;-80
2023/03/06 00:38:50;;;;;;;3.70;1.20;;;32.80;99.90;;;;;;5050332;28;20209;-77
2023/03/06 00:41:22;;;;;;;2.55;1.30;;;32.90;99.90;;;;;;5042406;28;20197;-84
2023/03/06 00:43:53;;;;;;;2.70;1.30;;;33.00;99.90;;;;;;5034657;28;20194;-83
2023/03/06 00:46:26;;;;;;;2.83;1.10;;;33.10;99.90;;;;;;5052637;28;20214;-80
2023/03/06 00:48:57;;;;;;;2.35;1.00;;;33.20;99.90;;;;;;5052231;28;20201;-81
2023/03/06 00:51:28;;;;;;;3.67;1.23;;;33.20;99.90;;;;;;5051907;28;20193;-81
2023/03/06 00:53:59;;;;;;;1.17;1.00;;;33.30;99.90;;;;;;5051117;28;20201;-77
2023/03/06 00:56:30;;;;;;;2.65;1.15;;;33.40;99.90;;;;;;5052085;28;20209;-79
2023/03/06 08:31:00;;;;;;;7.68;1.90;;;32.40;99.90;;;;;;5102714;27;20591;-78
2023/03/06 08:33:31;;;;;;;4.85;1.75;;;32.20;99.90;;;;;;5092223;28;20196;-78
2023/03/06 08:36:02;;;;;;;7.80;2.30;;;32.10;99.90;;;;;;5091189;28;20333;-78
2023/03/06 08:38:33;;;;;;;6.85;1.92;;;32.10;99.90;;;;;;5106359;28;20659;-78
2023/03/06 08:41:04;;;;;;;5.97;2.35;;;32.00;99.90;;;;;;5101569;28;20560;-78
2023/03/06 08:43:37;;;;;;;5.95;2.00;;;31.80;99.90;;;;;;5083280;28;20203;-78
2023/03/06 08:46:11;;;;;;;5.38;2.10;;;31.80;99.90;;;;;;5101090;28;20195;-79
2023/03/06 08:48:42;;;;;;;4.30;1.88;;;31.70;99.90;;;;;;5103365;28;20199;-79
2023/03/06 08:51:14;;;;;;;4.50;1.92;;;31.60;99.90;;;;;;5097775;28;20192;-79
2023/03/06 08:53:45;;;;;;;4.55;1.90;;;31.40;99.90;;;;;;5089254;28;20210;-78
2023/03/06 08:56:20;;;;;;;5.78;1.80;;;31.30;99.90;;;;;;5102504;28;20670;-78
2023/03/06 08:58:55;;;;;;;4.18;1.80;;;31.20;99.90;;;;;;5096476;28;20674;-79
2023/03/06 09:01:31;;;;;;;5.00;1.73;;;31.10;99.90;;;;;;5089928;28;20198;-78
2023/03/06 09:04:05;;;;;;;4.35;1.80;;;31.00;99.90;;;;;;5100138;28;20199;-80
2023/03/06 09:06:38;;;;;;;9.18;2.28;;;30.80;99.90;;;;;;5088637;28;20235;-79
2023/03/06 09:09:10;;;;;;;4.28;1.52;;;30.70;99.90;;;;;;5084452;28;20209;-80
2023/03/06 09:11:41;;;;;;;5.05;1.90;;;30.50;99.90;;;;;;5097073;28;20192;-81
2023/03/06 09:14:12;;;;;;;7.22;1.85;;;30.40;99.90;;;;;;5083711;28;20200;-79
2023/03/06 09:16:45;;;;;;;5.45;1.95;;;30.40;99.90;;;;;;5090343;28;20204;-78
2023/03/06 09:19:16;;;;;;;5.63;1.98;;;30.30;99.90;;;;;;5094008;28;20581;-78
2023/03/06 09:21:48;;;;;;;6.72;2.08;;;30.20;99.90;;;;;;5096197;28;20209;-78
2023/03/06 09:24:20;;;;;;;5.43;2.38;;;30.20;99.90;;;;;;5086858;28;20601;-78
2023/03/06 09:26:55;;;;;;;7.43;2.40;;;30.10;99.90;;;;;;5090485;28;20208;-78
2023/03/06 09:29:34;;;;;;;5.70;1.98;;;30.00;99.90;;;;;;5096577;28;20238;-78
2023/03/06 09:32:08;;;;;;;6.35;2.03;;;30.00;99.90;;;;;;5101238;28;20533;-78
2023/03/06 09:34:40;;;;;;;7.75;2.08;;;29.90;99.90;;;;;;5089343;28;20207;-78
2023/03/06 09:37:11;;;;;;;6.55;2.28;;;29.90;99.90;;;;;;5087268;28;20303;-79
2023/03/06 09:39:42;;;;;;;7.88;2.70;;;29.80;99.90;;;;;;5088087;28;20200;-79
2023/03/06 09:42:19;;;;;;;5.97;2.60;;;29.80;99.90;;;;;;5079655;28;20717;-79
2023/03/06 09:44:54;;;;;;;6.50;2.50;;;29.70;99.90;;;;;;5084865;28;20208;-78
2023/03/06 09:48:00;;;;;;;5.20;2.42;;;29.60;99.90;;;;;;5072250;28;20200;-78
2023/03/06 09:50:38;;;;;;;8.75;2.58;;;29.60;99.90;;;;;;5067975;28;20231;-79
2023/03/06 09:53:23;;;;;;;11.85;3.03;;;29.50;99.90;;;;;;5073608;28;20192;-78
2023/03/06 09:56:04;;;;;;;7.50;2.83;;;29.50;99.90;;;;;;5089408;28;20197;-79
2023/03/06 09:58:48;;;;;;;7.07;2.60;;;29.30;99.90;;;;;;5083966;28;20678;-78
2023/03/06 10:01:24;;;;;;;6.13;2.03;;;29.20;99.90;;;;;;5076900;28;20196;-79
2023/03/06 10:04:05;;;;;;;6.60;2.70;;;29.10;99.90;;;;;;5077699;28;20207;-78
2023/03/06 10:06:41;;;;;;;6.15;2.40;;;29.10;99.90;;;;;;5074595;28;20225;-80
2023/03/06 10:09:18;;;;;;;10.18;2.78;;;29.00;99.90;;;;;;5068943;28;20349;-78
2023/03/06 10:11:54;;;;;;;6.85;2.47;;;29.00;99.90;;;;;;5079235;28;20200;-79
2023/03/06 10:14:33;;;;;;;6.45;2.45;;;28.90;99.90;;;;;;5079124;28;20199;-79
2023/03/06 10:17:05;;;;;;;7.78;2.40;;;28.80;99.90;;;;;;5080195;28;20200;-78
2023/03/06 10:19:40;;;;;;;7.90;2.67;;;28.70;99.90;;;;;;5084070;28;20639;-78
2023/03/06 10:22:22;;;;;;;9.27;2.80;;;28.70;99.90;;;;;;5093167;28;20221;-78
2023/03/06 10:25:00;;;;;;;8.48;2.63;;;28.60;99.90;;;;;;5085204;28;20193;-79
2023/03/06 10:27:40;;;;;;;11.98;3.03;;;28.60;99.90;;;;;;5073911;28;20200;-78
2023/03/06 10:30:25;;;;;;;16.95;3.45;;;28.60;99.90;;;;;;5086827;28;20227;-78
2023/03/06 10:32:59;;;;;;;12.32;3.33;;;28.50;99.90;;;;;;5083894;28;20192;-78
2023/03/06 10:35:39;;;;;;;11.75;3.55;;;28.50;99.90;;;;;;5073649;28;21187;-78
2023/03/06 10:38:20;;;;;;;9.85;3.45;;;28.40;99.90;;;;;;5074965;28;20207;-78
2023/03/06 10:41:07;;;;;;;10.52;3.20;;;28.40;99.90;;;;;;5078164;28;20204;-78
2023/03/06 10:43:39;;;;;;;13.70;3.45;;;28.40;99.90;;;;;;5084569;28;20204;-78
2023/03/06 10:46:12;;;;;;;8.40;2.90;;;28.30;99.90;;;;;;5080529;28;20555;-78
2023/03/06 10:48:43;;;;;;;8.15;2.78;;;28.30;99.90;;;;;;5074714;28;20185;-77
2023/03/06 10:51:21;;;;;;;13.60;3.55;;;28.30;99.90;;;;;;5068884;28;20228;-78
2023/03/06 10:53:55;;;;;;;11.80;2.88;;;28.30;99.90;;;;;;5059826;28;20198;-78
2023/03/06 10:56:34;;;;;;;10.55;2.80;;;28.30;99.90;;;;;;5067574;28;20197;-77
2023/03/06 10:59:14;;;;;;;8.65;2.90;;;28.20;99.90;;;;;;5067861;28;20201;-78
2023/03/06 11:01:48;;;;;;;10.05;2.90;;;28.10;99.90;;;;;;5062056;28;20207;-78
2023/03/06 11:04:28;;;;;;;10.38;3.20;;;28.20;99.90;;;;;;5076412;28;20201;-78
2023/03/06 11:07:16;;;;;;;9.18;3.10;;;28.10;99.90;;;;;;5077340;28;20702;-78
2023/03/06 11:10:00;;;;;;;11.60;3.42;;;28.00;99.90;;;;;;5083355;28;20220;-78
2023/03/06 11:12:33;;;;;;;10.68;3.00;;;28.00;99.90;;;;;;5069087;28;20567;-78
2023/03/06 11:15:20;;;;;;;9.57;3.40;;;28.00;99.90;;;;;;5082678;28;20196;-78
2023/03/06 11:17:57;;;;;;;16.02;3.95;;;27.90;99.90;;;;;;5074171;28;20201;-78
2023/03/06 11:20:31;;;;;;;14.98;3.50;;;27.90;99.90;;;;;;5069233;28;20197;-78
2023/03/06 11:23:08;;;;;;;17.20;3.60;;;27.80;99.90;;;;;;5074062;28;20200;-78
2023/03/06 11:25:42;;;;;;;16.83;3.45;;;27.70;99.90;;;;;;5072920;28;20207;-79
2023/03/06 11:28:25;;;;;;;12.05;2.95;;;27.70;99.90;;;;;;5074813;28;20197;-78
2023/03/06 11:31:02;;;;;;;8.60;2.60;;;27.60;99.90;;;;;;5078153;28;20215;-78
2023/03/06 11:33:40;;;;;;;15.27;2.97;;;27.40;99.90;;;;;;5073233;28;20192;-77
2023/03/06 11:36:20;;;;;;;12.43;2.95;;;27.40;99.90;;;;;;5053894;28;20540;-77
2023/03/06 11:38:54;;;;;;;14.27;2.65;;;27.20;99.90;;;;;;5057004;28;20644;-78
2023/03/06 11:41:35;;;;;;;15.85;2.50;;;27.10;99.90;;;;;;5073587;28;20181;-78
2023/03/06 11:44:18;;;;;;;9.55;2.47;;;27.10;99.90;;;;;;5088804;28;20196;-78
2023/03/06 11:46:54;;;;;;;10.88;2.88;;;27.00;99.90;;;;;;5079314;28;20283;-77
2023/03/06 11:49:29;;;;;;;17.95;2.85;;;27.00;99.90;;;;;;5072624;28;20207;-77
2023/03/06 11:52:06;;;;;;;15.95;3.05;;;26.90;99.90;;;;;;5061048;28;20212;-80
2023/03/06 11:54:39;;;;;;;16.98;3.00;;;26.80;99.90;;;;;;5072956;28;20185;-77
2023/03/06 11:57:19;;;;;;;13.55;2.83;;;26.80;99.90;;;;;;5068648;28;20215;-77
2023/03/06 12:00:17;;;;;;;14.05;3.05;;;26.60;99.90;;;;;;5073382;28;20656;-76
2023/03/06 12:03:19;;;;;;;15.98;3.03;;;26.60;99.90;;;;;;5053614;28;20190;-76
2023/03/06 12:06:00;;;;;;;11.48;2.80;;;26.50;99.90;;;;;;5053626;28;20702;-76
2023/03/06 12:08:53;;;;;;;18.55;3.33;;;26.40;99.90;;;;;;5058011;28;20196;-77
2023/03/06 12:11:31;;;;;;;10.77;2.97;;;26.30;99.90;;;;;;5073391;28;20216;-76
2023/03/06 12:14:28;;;;;;;17.77;3.42;;;26.20;99.90;;;;;;5077219;28;20204;-76
2023/03/06 12:17:19;;;;;;;18.30;3.45;;;26.10;99.90;;;;;;5065945;28;20199;-77
2023/03/06 12:20:09;;;;;;;18.77;3.47;;;26.00;99.90;;;;;;5081706;28;20201;-76
2023/03/06 12:22:52;;;;;;;14.45;2.90;;;25.90;99.90;;;;;;5070693;28;20198;-77
2023/03/06 12:25:38;;;;;;;16.50;2.80;;;25.90;99.90;;;;;;5069552;28;20239;-76
2023/03/06 12:28:35;;;;;;;19.08;3.20;;;25.80;99.90;;;;;;5086980;28;20651;-76
2023/03/06 12:31:42;;;;;;;18.33;3.08;;;25.80;99.90;;;;;;5075927;28;20217;-77
2023/03/06 12:34:31;;;;;;;20.73;3.30;;;25.80;99.90;;;;;;5070071;28;20197;-76
2023/03/06 12:37:13;;;;;;;17.67;3.15;;;25.70;99.90;;;;;;5077494;28;20199;-77
2023/03/06 12:39:58;;;;;;;12.75;2.63;;;25.60;99.90;;;;;;5089838;28;20210;-77
2023/03/06 12:42:44;;;;;;;16.23;2.90;;;25.60;99.90;;;;;;5075568;28;20204;-77
2023/03/06 12:45:31;;;;;;;15.43;2.88;;;25.60;99.90;;;;;;5084198;28;20211;-77
2023/03/06 12:48:02;;;;;;;17.50;3.25;;;25.60;99.90;;;;;;5075299;28;20725;-76
2023/03/06 12:50:35;;;;;;;13.40;3.03;;;25.50;99.90;;;;;;5074917;28;20212;-76
2023/03/06 12:53:09;;;;;;;16.42;2.67;;;25.50;99.90;;;;;;5076361;28;20192;-77
2023/03/06 12:55:42;;;;;;;18.67;3.10;;;25.50;99.90;;;;;;5071063;28;20667;-80
2023/03/06 12:58:54;;;;;;;13.27;3.08;;;25.40;99.90;;;;;;5081662;28;20196;-79
2023/03/06 13:02:09;;;;;;;18.75;2.92;;;25.40;99.90;;;;;;5070759;28;20577;-77
2023/03/06 13:05:01;;;;;;;12.90;2.72;;;25.40;99.90;;;;;;5067585;28;20200;-78
2023/03/06 13:07:48;;;;;;;15.40;2.97;;;25.40;99.90;;;;;;5072029;28;20208;-77
2023/03/06 13:10:27;;;;;;;22.98;3.58;;;25.30;99.90;;;;;;5061195;28;20204;-76
2023/03/06 13:12:59;;;;;;;17.25;3.40;;;25.20;99.90;;;;;;5072570;28;20200;-77
2023/03/06 13:15:42;;;;;;;16.45;2.78;;;25.20;99.90;;;;;;5072706;28;20236;-77
2023/03/06 13:19:01;;;;;;;20.88;3.22;;;25.20;99.90;;;;;;5080318;28;20192;-77
2023/03/06 13:22:04;;;;;;;13.82;2.70;;;25.10;99.90;;;;;;5035717;28;20209;-79
2023/03/06 13:24:38;;;;;;;15.00;2.90;;;25.00;99.90;;;;;;5081930;28;20200;-78
2023/03/06 13:27:11;;;;;;;15.40;3.05;;;25.00;99.90;;;;;;5074558;28;20262;-78
2023/03/06 13:30:21;;;;;;;16.70;3.22;;;25.00;99.90;;;;;;5075123;28;20220;-78
2023/03/06 13:32:53;;;;;;;17.05;3.15;;;24.90;99.90;;;;;;5072061;28;20193;-78
2023/03/06 13:35:54;;;;;;;14.25;2.97;;;24.90;99.90;;;;;;5075734;28;20205;-78
2023/03/06 13:38:57;;;;;;;20.45;3.53;;;24.80;99.90;;;;;;5072276;28;20662;-79
2023/03/06 13:41:54;;;;;;;14.68;2.80;;;24.70;99.90;;;;;;5096305;28;20188;-78
2023/03/06 13:44:43;;;;;;;23.90;3.80;;;24.70;99.90;;;;;;5071267;28;20201;-80
2023/03/06 13:47:53;;;;;;;20.33;3.00;;;24.70;99.90;;;;;;5075706;28;20192;-78
2023/03/06 13:50:41;;;;;;;14.35;2.80;;;24.50;99.90;;;;;;5071219;28;20216;-78
2023/03/06 13:53:51;;;;;;;19.90;3.30;;;24.50;99.90;;;;;;5092260;28;20203;-79
2023/03/06 13:56:57;;;;;;;17.73;3.40;;;24.60;99.90;;;;;;5076894;28;20196;-78
2023/03/06 13:59:59;;;;;;;20.77;3.30;;;24.50;99.90;;;;;;5080512;28;20196;-78
2023/03/06 14:02:56;;;;;;;19.38;3.08;;;24.50;99.90;;;;;;5094520;28;20207;-77
2023/03/06 14:05:34;;;;;;;18.40;2.85;;;24.50;99.90;;;;;;5088534;28;20253;-78
2023/03/06 14:08:09;;;;;;;13.85;2.90;;;24.40;99.90;;;;;;5084216;28;20211;-78
2023/03/06 14:10:43;;;;;;;15.98;2.88;;;24.40;99.90;;;;;;5081754;28;20426;-77
2023/03/06 14:13:21;;;;;;;14.18;3.00;;;24.50;99.90;;;;;;5072283;28;20196;-78
2023/03/06 14:15:53;;;;;;;19.55;3.13;;;24.50;99.90;;;;;;5077707;28;20197;-77
2023/03/06 14:18:26;;;;;;;20.05;3.30;;;24.50;99.90;;;;;;5060246;28;20195;-77
2023/03/06 14:21:00;;;;;;;13.43;3.30;;;24.50;99.90;;;;;;5068605;28;20196;-77
2023/03/06 14:23:36;;;;;;;15.85;3.45;;;24.50;99.90;;;;;;5091214;28;20196;-77
2023/03/06 14:26:17;;;;;;;14.68;3.22;;;24.50;99.90;;;;;;5078626;28;20250;-77
2023/03/06 14:28:57;;;;;;;12.85;2.70;;;24.50;99.90;;;;;;5073334;28;20199;-77
2023/03/06 14:31:32;;;;;;;20.27;3.20;;;24.40;99.90;;;;;;5081368;28;20227;-77
2023/03/06 14:34:05;;;;;;;23.70;3.80;;;24.40;99.90;;;;;;5077598;28;20196;-77
2023/03/06 14:36:43;;;;;;;21.27;3.42;;;24.30;99.90;;;;;;5074932;28;20648;-77
2023/03/06 14:39:17;;;;;;;18.70;3.30;;;24.30;99.90;;;;;;5082124;28;20200;-77
2023/03/06 14:41:51;;;;;;;13.30;3.03;;;24.20;99.90;;;;;;5073467;28;20203;-77
2023/03/06 14:44:25;;;;;;;19.02;3.20;;;24.20;99.90;;;;;;5094135;28;20210;-77
2023/03/06 14:46:58;;;;;;;23.15;3.55;;;24.20;99.90;;;;;;5073473;28;20201;-78
2023/03/06 14:49:30;;;;;;;15.30;3.13;;;24.20;99.90;;;;;;5072838;28;20201;-77
2023/03/06 14:52:02;;;;;;;15.07;2.70;;;24.20;99.90;;;;;;5085740;28;20696;-77
2023/03/06 14:54:38;;;;;;;17.05;3.20;;;24.20;99.90;;;;;;5064073;28;20185;-77
2023/03/06 14:57:28;;;;;;;15.25;3.28;;;24.20;99.90;;;;;;5074031;28;20220;-77
2023/03/06 15:00:03;;;;;;;19.75;3.40;;;24.20;99.90;;;;;;5074614;28;20197;-77
2023/03/06 15:02:34;;;;;;;22.77;3.30;;;24.20;99.90;;;;;;5074396;28;20227;-77
2023/03/06 15:05:13;;;;;;;24.45;3.72;;;24.10;99.90;;;;;;5074556;28;20279;-77
2023/03/06 15:07:45;;;;;;;23.52;4.00;;;24.10;99.90;;;;;;5074453;28;20555;-77
2023/03/06 15:10:29;;;;;;;19.08;3.10;;;24.10;99.90;;;;;;5074334;28;20185;-77
2023/03/06 15:13:21;;;;;;;19.77;3.80;;;24.00;99.90;;;;;;5071810;28;20200;-77
2023/03/06 15:16:00;;;;;;;25.33;4.15;;;24.00;99.90;;;;;;5072875;28;20204;-77
2023/03/06 15:18:37;;;;;;;20.83;3.50;;;23.90;99.90;;;;;;5073749;28;20203;-77
2023/03/06 15:21:17;;;;;;;15.63;3.42;;;23.90;99.90;;;;;;5074057;28;20199;-77
2023/03/06 15:23:51;;;;;;;27.08;4.10;;;23.80;99.90;;;;;;5073580;28;20829;-78
2023/03/06 15:26:38;;;;;;;24.67;3.65;;;23.80;99.90;;;;;;5071164;28;20193;-77
2023/03/06 15:29:24;;;;;;;26.58;4.18;;;23.80;99.90;;;;;;5072557;28;20279;-77
2023/03/06 15:32:13;;;;;;;17.00;3.25;;;23.80;99.90;;;;;;5068432;28;20220;-78
2023/03/06 15:34:44;;;;;;;25.88;3.72;;;23.80;99.90;;;;;;5078840;28;20207;-77
2023/03/06 15:37:30;;;;;;;21.00;3.60;;;23.80;99.90;;;;;;5075991;28;20197;-77
2023/03/06 15:40:10;;;;;;;13.32;3.35;;;23.70;99.90;;;;;;5072295;28;20566;-77
2023/03/06 15:42:43;;;;;;;20.02;3.20;;;23.70;99.90;;;;;;5081745;28;20247;-78
2023/03/06 15:45:21;;;;;;;16.27;3.13;;;23.80;99.90;;;;;;5057777;28;20212;-77
2023/03/06 15:47:54;;;;;;;11.27;2.60;;;23.80;99.90;;;;;;5056285;28;20193;-77
2023/03/06 15:50:27;;;;;;;18.73;3.40;;;23.90;99.90;;;;;;5067802;28;20204;-77
2023/03/06 15:52:58;;;;;;;26.90;3.40;;;23.90;99.90;;;;;;5081018;28;20365;-78
2023/03/06 15:55:29;;;;;;;20.08;3.67;;;23.90;99.90;;;;;;5084695;28;20192;-78
2023/03/06 15:58:02;;;;;;;15.23;2.88;;;23.80;99.90;;;;;;5074479;28;20215;-77
2023/03/06 16:00:37;;;;;;;18.50;3.40;;;23.80;99.90;;;;;;5071394;28;20224;-77
2023/03/06 16:03:11;;;;;;;18.88;3.53;;;23.80;99.90;;;;;;5082135;28;20196;-77
2023/03/06 16:05:42;;;;;;;16.48;2.88;;;23.80;99.90;;;;;;5083724;28;20232;-77
2023/03/06 16:08:13;;;;;;;18.05;3.30;;;23.80;99.90;;;;;;5073240;28;20200;-77
2023/03/06 16:10:46;;;;;;;17.80;3.50;;;23.90;99.90;;;;;;5073210;28;20272;-78
2023/03/06 16:13:22;;;;;;;18.13;3.55;;;23.80;99.90;;;;;;5078791;28;20196;-77
2023/03/06 16:15:56;;;;;;;15.57;3.17;;;23.80;99.90;;;;;;5082099;28;20610;-77
2023/03/06 16:18:27;;;;;;;16.52;3.60;;;23.80;99.90;;;;;;5083754;28;20206;-77
2023/03/06 16:20:58;;;;;;;11.75;2.72;;;23.80;99.90;;;;;;5074297;28;20200;-78
2023/03/06 16:23:29;;;;;;;17.00;3.40;;;23.80;99.90;;;;;;5088469;28;20199;-77
2023/03/06 16:26:00;;;;;;;12.82;3.25;;;23.90;99.90;;;;;;5085415;28;20674;-78
2023/03/06 16:28:33;;;;;;;11.75;2.58;;;23.90;99.90;;;;;;5077236;28;20291;-78
2023/03/06 16:31:06;;;;;;;16.23;3.10;;;23.90;99.90;;;;;;5073979;28;20197;-78
2023/03/06 16:33:37;;;;;;;22.13;3.33;;;23.90;99.90;;;;;;5081431;28;20197;-78
2023/03/06 16:36:14;;;;;;;17.92;3.38;;;24.00;99.90;;;;;;5071640;28;20200;-77
2023/03/06 16:38:45;;;;;;;14.68;3.95;;;24.00;99.90;;;;;;5071799;28;20204;-77
2023/03/06 16:41:17;;;;;;;12.75;2.60;;;24.00;99.90;;;;;;5075584;28;20633;-78
2023/03/06 16:43:48;;;;;;;20.38;3.53;;;24.00;99.90;;;;;;5081882;28;20220;-77
2023/03/06 16:46:23;;;;;;;24.52;3.65;;;24.00;99.90;;;;;;5071686;28;20188;-77
2023/03/06 16:48:55;;;;;;;11.50;2.92;;;23.90;99.90;;;;;;5080024;28;20575;-77
2023/03/06 16:51:26;;;;;;;14.30;2.92;;;23.90;99.90;;;;;;5080523;28;20223;-78
2023/03/06 16:53:57;;;;;;;18.30;3.10;;;23.80;99.90;;;;;;5076331;28;20192;-77
2023/03/06 16:56:28;;;;;;;20.80;3.67;;;23.80;99.90;;;;;;5076992;28;20200;-77
2023/03/06 16:58:59;;;;;;;12.23;2.88;;;23.80;99.90;;;;;;5076751;28;20202;-77
2023/03/06 17:01:32;;;;;;;21.52;3.80;;;23.70;99.90;;;;;;5077013;28;20200;-77
2023/03/06 17:04:03;;;;;;;16.02;3.10;;;23.70;99.90;;;;;;5077003;28;20184;-77
2023/03/06 17:06:34;;;;;;;16.08;3.30;;;23.70;99.90;;;;;;5077286;28;20220;-77
2023/03/06 17:09:05;;;;;;;12.57;3.55;;;23.70;99.90;;;;;;5076767;28;20185;-77
2023/03/06 17:11:41;;;;;;;16.73;3.83;;;23.70;99.90;;;;;;5076999;28;20217;-78
2023/03/06 17:14:12;;;;;;;13.07;3.00;;;23.60;99.90;;;;;;5072090;28;20634;-77
2023/03/06 17:16:45;;;;;;;17.48;3.33;;;23.60;99.90;;;;;;5076603;28;20667;-77
2023/03/06 17:19:17;;;;;;;14.50;2.92;;;23.60;99.90;;;;;;5076534;28;20193;-77
2023/03/06 17:21:48;;;;;;;20.77;3.40;;;23.60;99.90;;;;;;5076592;28;20193;-77
2023/03/06 17:24:19;;;;;;;15.38;3.03;;;23.70;99.90;;;;;;5061710;28;20220;-77
2023/03/06 17:26:50;;;;;;;16.65;2.97;;;23.70;99.90;;;;;;5075627;28;20196;-77
2023/03/06 17:29:21;;;;;;;16.52;2.90;;;23.70;99.90;;;;;;5074406;28;20255;-78
2023/03/06 17:31:57;;;;;;;15.52;3.13;;;23.70;99.90;;;;;;5072744;28;20267;-77
2023/03/06 17:34:28;;;;;;;13.10;2.83;;;23.70;99.90;;;;;;5074572;28;20200;-77
2023/03/06 17:37:00;;;;;;;13.88;2.95;;;23.70;99.90;;;;;;5090361;28;20201;-77
2023/03/06 17:39:34;;;;;;;18.58;3.40;;;23.70;99.90;;;;;;5094207;28;20747;-77
2023/03/06 17:42:07;;;;;;;10.98;3.00;;;23.80;99.90;;;;;;5083647;28;20652;-77
2023/03/06 17:44:39;;;;;;;19.35;3.58;;;23.70;99.90;;;;;;5071066;28;20652;-77
2023/03/06 17:47:12;;;;;;;14.18;2.90;;;23.70;99.90;;;;;;5073561;28;20200;-77
2023/03/06 17:49:43;;;;;;;15.30;3.13;;;23.70;99.90;;;;;;5090835;28;20674;-77
2023/03/06 17:52:15;;;;;;;12.88;3.00;;;23.70;99.90;;;;;;5093427;28;20709;-77
2023/03/06 17:54:46;;;;;;;15.05;3.00;;;23.70;99.90;;;;;;5075269;28;20287;-78
2023/03/06 17:57:17;;;;;;;14.90;3.38;;;23.70;99.90;;;;;;5088532;28;20200;-77
2023/03/06 17:59:48;;;;;;;20.17;3.55;;;23.70;99.90;;;;;;5092695;28;20200;-78
2023/03/06 18:02:21;;;;;;;19.58;3.60;;;23.70;99.90;;;;;;5080330;28;20664;-77
2023/03/06 18:04:52;;;;;;;14.15;3.10;;;23.60;99.90;;;;;;5074691;28;20196;-77
2023/03/06 18:07:25;;;;;;;14.55;2.60;;;23.50;99.90;;;;;;5074687;28;20216;-77
2023/03/06 18:09:56;;;;;;;13.27;3.15;;;23.50;99.90;;;;;;5092562;28;20193;-77
2023/03/06 18:12:28;;;;;;;13.63;3.20;;;23.60;99.90;;;;;;5092668;28;20212;-77
2023/03/06 18:14:59;;;;;;;14.90;3.22;;;23.60;99.90;;;;;;5095714;28;20193;-77
2023/03/06 18:17:32;;;;;;;16.35;3.60;;;23.60;99.90;;;;;;5074694;28;20228;-78
2023/03/06 18:20:03;;;;;;;14.75;3.17;;;23.60;99.90;;;;;;5089502;28;20227;-77
2023/03/06 18:22:34;;;;;;;15.52;3.50;;;23.60;99.90;;;;;;5089442;28;20198;-77
2023/03/06 18:25:05;;;;;;;19.52;3.35;;;23.60;99.90;;;;;;5063536;28;20201;-77
2023/03/06 18:27:37;;;;;;;16.98;3.08;;;23.60;99.90;;;;;;5078936;28;20200;-77
2023/03/06 18:30:08;;;;;;;18.23;3.28;;;23.60;99.90;;;;;;5077602;28;20224;-77
2023/03/06 18:32:41;;;;;;;15.57;3.60;;;23.60;99.90;;;;;;5077496;28;20216;-77
2023/03/06 18:35:13;;;;;;;16.27;3.58;;;23.60;99.90;;;;;;5088050;28;20189;-77
2023/03/06 18:37:44;;;;;;;13.63;3.30;;;23.60;99.90;;;;;;5075110;28;20193;-77
2023/03/06 18:40:16;;;;;;;11.10;2.92;;;23.60;99.90;;;;;;5074869;28;20201;-78
2023/03/06 18:42:47;;;;;;;18.13;3.42;;;23.60;99.90;;;;;;5073467;28;20203;-77
2023/03/06 18:45:18;;;;;;;14.88;2.88;;;23.60;99.90;;;;;;5090408;28;20204;-77
2023/03/06 18:47:51;;;;;;;12.35;3.33;;;23.60;99.90;;;;;;5067468;28;20552;-78
2023/03/06 18:50:22;;;;;;;15.70;3.55;;;23.60;99.90;;;;;;5074687;28;20216;-77
2023/03/06 18:52:53;;;;;;;20.63;3.85;;;23.60;99.90;;;;;;5073616;28;20228;-78
2023/03/06 18:55:24;;;;;;;20.02;3.30;;;23.60;99.90;;;;;;5074840;28;20189;-78
2023/03/06 18:57:55;;;;;;;16.80;3.55;;;23.60;99.90;;;;;;5074495;28;20204;-78
2023/03/06 19:00:26;;;;;;;14.75;3.15;;;23.60;99.90;;;;;;5074668;28;20200;-78
2023/03/06 19:02:59;;;;;;;14.10;3.80;;;23.60;99.90;;;;;;5074985;28;20192;-77
2023/03/06 19:05:30;;;;;;;12.70;3.67;;;23.60;99.90;;;;;;5070954;28;20232;-77
2023/03/06 19:08:02;;;;;;;15.23;3.42;;;23.60;99.90;;;;;;5074582;28;20204;-77
2023/03/06 19:10:34;;;;;;;19.10;3.65;;;23.60;99.90;;;;;;5089248;28;20279;-77
2023/03/06 19:13:06;;;;;;;19.75;3.85;;;23.60;99.90;;;;;;5092895;28;20579;-78
2023/03/06 19:15:42;;;;;;;14.93;3.28;;;23.60;99.90;;;;;;5074017;28;20200;-78
2023/03/06 19:18:16;;;;;;;13.32;2.95;;;23.60;99.90;;;;;;5074391;28;20196;-77
2023/03/06 19:20:47;;;;;;;12.20;3.72;;;23.60;99.90;;;;;;5072380;28;20192;-77
2023/03/06 19:23:18;;;;;;;19.08;3.90;;;23.60;99.90;;;;;;5072601;28;20201;-78
2023/03/06 19:25:58;;;;;;;17.30;3.50;;;23.70;99.90;;;;;;5077152;28;20223;-77
2023/03/06 19:28:30;;;;;;;18.95;4.05;;;23.70;99.90;;;;;;5075604;28;20192;-78
2023/03/06 19:31:01;;;;;;;15.38;3.58;;;23.60;99.90;;;;;;5063531;28;20579;-78
2023/03/06 19:33:36;;;;;;;14.82;3.60;;;23.60;99.90;;;;;;5070150;28;20212;-77
2023/03/06 19:36:08;;;;;;;17.42;3.72;;;23.60;99.90;;;;;;5091748;28;20192;-78
2023/03/06 19:38:39;;;;;;;15.55;3.70;;;23.60;99.90;;;;;;5078238;28;20198;-77
2023/03/06 19:41:15;;;;;;;13.13;3.75;;;23.60;99.90;;;;;;5075851;28;20195;-78
2023/03/06 19:43:46;;;;;;;16.27;3.65;;;23.60;99.90;;;;;;5090705;28;20199;-78
2023/03/06 19:46:17;;;;;;;12.48;3.00;;;23.60;99.90;;;;;;5073392;28;20288;-78
2023/03/06 19:48:55;;;;;;;17.60;3.65;;;23.60;99.90;;;;;;5072320;28;20199;-78
2023/03/06 19:51:26;;;;;;;17.27;3.60;;;23.60;99.90;;;;;;5086681;28;20200;-78
2023/03/06 19:53:58;;;;;;;11.98;3.10;;;23.50;99.90;;;;;;5059873;28;20219;-79
2023/03/06 19:56:30;;;;;;;19.58;3.85;;;23.60;99.90;;;;;;5072430;28;20193;-78
2023/03/06 19:59:01;;;;;;;15.60;3.20;;;23.50;99.90;;;;;;5088905;28;20694;-79
2023/03/06 20:01:33;;;;;;;14.63;3.55;;;23.50;99.90;;;;;;5086157;28;20672;-78
2023/03/06 20:04:05;;;;;;;11.75;3.00;;;23.50;99.90;;;;;;5076251;28;20235;-78
2023/03/06 20:06:37;;;;;;;13.00;3.55;;;23.50;99.90;;;;;;5080993;28;20216;-78
2023/03/06 20:09:10;;;;;;;13.15;3.35;;;23.50;99.90;;;;;;5071679;28;20254;-78
2023/03/06 20:11:41;;;;;;;14.25;3.22;;;23.60;99.90;;;;;;5069511;28;20239;-79
2023/03/06 20:14:14;;;;;;;14.00;3.33;;;23.60;99.90;;;;;;5073310;28;20575;-78
2023/03/06 20:16:45;;;;;;;15.25;3.58;;;23.60;99.90;;;;;;5073386;28;20216;-78
2023/03/06 20:19:19;;;;;;;17.52;3.33;;;23.60;99.90;;;;;;5071843;28;20190;-78
2023/03/06 20:21:50;;;;;;;16.20;3.60;;;23.70;99.90;;;;;;5060374;28;20209;-78
2023/03/06 20:24:21;;;;;;;11.73;3.53;;;23.70;99.90;;;;;;5073105;28;20189;-78
2023/03/06 20:26:56;;;;;;;9.52;3.35;;;23.70;99.90;;;;;;5057277;28;20208;-78
2023/03/06 20:29:27;;;;;;;15.85;3.30;;;23.70;99.90;;;;;;5072403;28;20293;-78
2023/03/06 20:31:58;;;;;;;18.10;3.53;;;23.70;99.90;;;;;;5082726;28;20199;-78
2023/03/06 20:34:31;;;;;;;16.55;3.78;;;23.70;99.90;;;;;;5075447;28;20217;-78
2023/03/06 20:37:03;;;;;;;16.05;3.60;;;23.80;99.90;;;;;;5080672;28;20188;-78
2023/03/06 20:39:34;;;;;;;12.82;3.83;;;23.80;99.90;;;;;;5082344;28;20211;-77
2023/03/06 20:42:06;;;;;;;16.88;4.47;;;23.80;99.90;;;;;;5083635;28;20566;-78
2023/03/06 20:44:37;;;;;;;16.98;3.90;;;23.90;99.90;;;;;;5078745;28;20196;-78
2023/03/06 20:47:08;;;;;;;19.00;4.63;;;23.90;99.90;;;;;;5070423;28;20204;-79
2023/03/06 20:49:41;;;;;;;22.48;4.43;;;23.90;99.90;;;;;;5072317;28;20206;-78
2023/03/06 20:52:12;;;;;;;22.08;4.40;;;23.90;99.90;;;;;;5064286;28;20200;-78
2023/03/06 20:54:44;;;;;;;15.88;4.57;;;23.90;99.90;;;;;;5078725;28;20200;-79
2023/03/06 20:57:15;;;;;;;14.73;4.00;;;23.90;99.90;;;;;;5057921;28;20276;-78